sensor_id;sensor_type;location;lat;lon;timestamp;pressure;altitude;pressure_sealevel;temperature;humidity
498;BME280;39559;48.630;9.162;2024-03-02T00:00:09;96447.78;;;1.88;100.00
498;BME280;39559;48.630;9.162;2024-03-02T00:02:41;96447.03;;;1.85;100.00
498;BME280;39559;48.630;9.162;2024-03-02T00:05:07;96440.53;;;1.71;100.00
498;BME280;39559;48.630;9.162;2024-03-02T00:07:33;96450.34;;;1.52;100.00
498;BME280;39559;48.630;9.162;2024-03-02T00:11:51;96455.31;;;1.60;100.00
498;BME280;39559;48.630;9.162;2024-03-02T00:14:17;96469.72;;;1.64;100.00
498;BME280;39559;48.630;9.162;2024-03-02T00:16:42;96469.38;;;1.78;100.00
498;BME280;39559;48.630;9.162;2024-03-02T00:19:08;96458.56;;;1.67;100.00
498;BME280;39559;48.630;9.162;2024-03-02T00:21:34;96459.59;;;1.58;100.00
498;BME280;39559;48.630;9.162;2024-03-02T00:24:01;96466.50;;;1.54;100.00
498;BME280;39559;48.630;9.162;2024-03-02T00:26:31;96462.81;;;1.68;100.00
498;BME280;39559;48.630;9.162;2024-03-02T00:28:57;96460.13;;;1.72;100.00
498;BME280;39559;48.630;9.162;2024-03-02T00:31:24;96464.13;;;1.84;100.00
498;BME280;39559;48.630;9.162;2024-03-02T00:35:52;96465.47;;;1.98;100.00
498;BME280;39559;48.630;9.162;2024-03-02T00:38:17;96460.59;;;1.88;100.00
498;BME280;39559;48.630;9.162;2024-03-02T00:40:44;96460.88;;;1.76;100.00
498;BME280;39559;48.630;9.162;2024-03-02T00:46:06;96465.00;;;1.82;100.00
498;BME280;39559;48.630;9.162;2024-03-02T00:48:33;96461.56;;;1.84;100.00
498;BME280;39559;48.630;9.162;2024-03-02T00:51:02;96442.84;;;1.82;100.00
498;BME280;39559;48.630;9.162;2024-03-02T00:53:31;96453.53;;;1.64;100.00
498;BME280;39559;48.630;9.162;2024-03-02T00:55:58;96443.47;;;1.54;100.00
498;BME280;39559;48.630;9.162;2024-03-02T00:59:51;96445.56;;;1.75;100.00
498;BME280;39559;48.630;9.162;2024-03-02T01:02:17;96439.09;;;1.96;100.00
498;BME280;39559;48.630;9.162;2024-03-02T01:04:45;96442.88;;;1.81;100.00
498;BME280;39559;48.630;9.162;2024-03-02T01:07:11;96438.78;;;1.73;100.00
498;BME280;39559;48.630;9.162;2024-03-02T01:09:36;96442.66;;;1.54;100.00
498;BME280;39559;48.630;9.162;2024-03-02T01:12:02;96446.22;;;1.47;100.00
498;BME280;39559;48.630;9.162;2024-03-02T01:14:27;96454.31;;;1.30;100.00
498;BME280;39559;48.630;9.162;2024-03-02T01:16:53;96462.56;;;1.41;100.00
498;BME280;39559;48.630;9.162;2024-03-02T01:19:19;96452.53;;;1.32;100.00
498;BME280;39559;48.630;9.162;2024-03-02T01:23:51;96463.06;;;1.57;100.00
498;BME280;39559;48.630;9.162;2024-03-02T01:26:17;96455.47;;;1.52;100.00
498;BME280;39559;48.630;9.162;2024-03-02T01:28:42;96446.75;;;1.61;100.00
498;BME280;39559;48.630;9.162;2024-03-02T01:31:08;96449.06;;;1.72;100.00
498;BME280;39559;48.630;9.162;2024-03-02T01:33:33;96438.53;;;1.48;100.00
498;BME280;39559;48.630;9.162;2024-03-02T01:35:59;96434.91;;;1.20;100.00
498;BME280;39559;48.630;9.162;2024-03-02T01:38:24;96438.63;;;1.06;100.00
498;BME280;39559;48.630;9.162;2024-03-02T01:40:50;96444.16;;;0.86;100.00
498;BME280;39559;48.630;9.162;2024-03-02T01:43:17;96448.06;;;1.03;100.00
498;BME280;39559;48.630;9.162;2024-03-02T01:47:53;96450.97;;;1.26;100.00
498;BME280;39559;48.630;9.162;2024-03-02T01:50:30;96446.78;;;1.24;100.00
498;BME280;39559;48.630;9.162;2024-03-02T01:52:56;96441.94;;;1.11;100.00
498;BME280;39559;48.630;9.162;2024-03-02T01:55:22;96438.91;;;0.52;100.00
498;BME280;39559;48.630;9.162;2024-03-02T01:57:48;96447.69;;;0.38;100.00
498;BME280;39559;48.630;9.162;2024-03-02T02:00:16;96453.56;;;0.42;100.00
498;BME280;39559;48.630;9.162;2024-03-02T02:02:43;96455.84;;;0.56;100.00
498;BME280;39559;48.630;9.162;2024-03-02T02:05:08;96453.66;;;0.80;100.00
498;BME280;39559;48.630;9.162;2024-03-02T02:07:35;96456.97;;;0.85;100.00
498;BME280;39559;48.630;9.162;2024-03-02T02:11:51;96452.28;;;0.63;100.00
498;BME280;39559;48.630;9.162;2024-03-02T02:14:17;96439.69;;;0.10;100.00
498;BME280;39559;48.630;9.162;2024-03-02T02:16:43;96450.69;;;0.14;100.00
498;BME280;39559;48.630;9.162;2024-03-02T02:19:08;96452.75;;;0.40;100.00
498;BME280;39559;48.630;9.162;2024-03-02T02:21:35;96452.69;;;0.43;100.00
498;BME280;39559;48.630;9.162;2024-03-02T02:24:00;96449.69;;;0.21;100.00
498;BME280;39559;48.630;9.162;2024-03-02T02:26:28;96452.78;;;0.38;100.00
498;BME280;39559;48.630;9.162;2024-03-02T02:28:54;96442.31;;;0.51;100.00
498;BME280;39559;48.630;9.162;2024-03-02T02:31:20;96441.81;;;0.33;100.00
498;BME280;39559;48.630;9.162;2024-03-02T02:35:51;96429.88;;;0.34;100.00
498;BME280;39559;48.630;9.162;2024-03-02T02:38:17;96425.47;;;0.42;100.00
498;BME280;39559;48.630;9.162;2024-03-02T02:40:42;96423.22;;;0.27;100.00
498;BME280;39559;48.630;9.162;2024-03-02T02:43:08;96414.38;;;-0.02;100.00
498;BME280;39559;48.630;9.162;2024-03-02T02:45:33;96418.75;;;-0.07;100.00
498;BME280;39559;48.630;9.162;2024-03-02T02:47:59;96417.16;;;-0.14;100.00
498;BME280;39559;48.630;9.162;2024-03-02T02:50:27;96424.38;;;0.10;100.00
498;BME280;39559;48.630;9.162;2024-03-02T02:52:52;96416.13;;;-0.06;100.00
498;BME280;39559;48.630;9.162;2024-03-02T02:55:18;96407.59;;;-0.02;100.00
498;BME280;39559;48.630;9.162;2024-03-02T02:59:51;96411.88;;;-0.04;100.00
498;BME280;39559;48.630;9.162;2024-03-02T03:02:17;96404.00;;;0.07;100.00
498;BME280;39559;48.630;9.162;2024-03-02T03:04:42;96405.97;;;-0.07;100.00
498;BME280;39559;48.630;9.162;2024-03-02T03:07:08;96397.97;;;-0.35;100.00
498;BME280;39559;48.630;9.162;2024-03-02T03:09:37;96404.00;;;-0.41;100.00
498;BME280;39559;48.630;9.162;2024-03-02T03:12:04;96407.47;;;-0.45;100.00
498;BME280;39559;48.630;9.162;2024-03-02T03:14:29;96414.81;;;-0.27;100.00
498;BME280;39559;48.630;9.162;2024-03-02T03:16:55;96421.31;;;-0.09;100.00
498;BME280;39559;48.630;9.162;2024-03-02T03:19:20;96421.22;;;-0.04;100.00
498;BME280;39559;48.630;9.162;2024-03-02T03:23:51;96424.19;;;-0.27;100.00
498;BME280;39559;48.630;9.162;2024-03-02T03:26:17;96419.53;;;-0.55;100.00
498;BME280;39559;48.630;9.162;2024-03-02T03:28:43;96428.28;;;-0.71;100.00
498;BME280;39559;48.630;9.162;2024-03-02T03:31:08;96425.66;;;-0.67;100.00
498;BME280;39559;48.630;9.162;2024-03-02T03:33:34;96420.44;;;-0.57;100.00
498;BME280;39559;48.630;9.162;2024-03-02T03:36:00;96427.03;;;-0.46;100.00
498;BME280;39559;48.630;9.162;2024-03-02T03:38:29;96418.50;;;-0.43;100.00
498;BME280;39559;48.630;9.162;2024-03-02T03:40:54;96414.59;;;-0.66;100.00
498;BME280;39559;48.630;9.162;2024-03-02T03:43:20;96414.72;;;-0.75;100.00
498;BME280;39559;48.630;9.162;2024-03-02T03:47:53;96422.16;;;-0.58;100.00
498;BME280;39559;48.630;9.162;2024-03-02T03:50:19;96412.97;;;-0.70;100.00
498;BME280;39559;48.630;9.162;2024-03-02T03:52:45;96412.19;;;-0.75;100.00
498;BME280;39559;48.630;9.162;2024-03-02T03:55:10;96408.00;;;-0.78;100.00
498;BME280;39559;48.630;9.162;2024-03-02T03:57:36;96407.84;;;-0.68;100.00
498;BME280;39559;48.630;9.162;2024-03-02T04:00:02;96407.81;;;-0.67;100.00
498;BME280;39559;48.630;9.162;2024-03-02T04:02:28;96408.59;;;-0.62;100.00
498;BME280;39559;48.630;9.162;2024-03-02T04:04:54;96408.63;;;-0.63;100.00
498;BME280;39559;48.630;9.162;2024-03-02T04:07:19;96409.41;;;-0.58;100.00
498;BME280;39559;48.630;9.162;2024-03-02T04:11:52;96409.47;;;-0.64;100.00
498;BME280;39559;48.630;9.162;2024-03-02T04:14:18;96398.06;;;-0.94;100.00
498;BME280;39559;48.630;9.162;2024-03-02T04:16:43;96398.22;;;-1.05;100.00
498;BME280;39559;48.630;9.162;2024-03-02T04:19:09;96406.72;;;-1.08;100.00
498;BME280;39559;48.630;9.162;2024-03-02T04:21:34;96400.69;;;-1.02;100.00
498;BME280;39559;48.630;9.162;2024-03-02T04:24:00;96396.53;;;-1.08;100.00
498;BME280;39559;48.630;9.162;2024-03-02T04:26:26;96397.19;;;-0.95;100.00
498;BME280;39559;48.630;9.162;2024-03-02T04:28:52;96396.31;;;-0.91;100.00
498;BME280;39559;48.630;9.162;2024-03-02T04:31:19;96389.53;;;-0.93;100.00
498;BME280;39559;48.630;9.162;2024-03-02T04:35:53;96403.88;;;-0.86;100.00
498;BME280;39559;48.630;9.162;2024-03-02T04:38:18;96402.22;;;-0.89;100.00
498;BME280;39559;48.630;9.162;2024-03-02T04:40:44;96400.94;;;-1.18;100.00
498;BME280;39559;48.630;9.162;2024-03-02T04:43:09;96398.41;;;-1.21;100.00
498;BME280;39559;48.630;9.162;2024-03-02T04:45:38;96400.09;;;-1.18;100.00
498;BME280;39559;48.630;9.162;2024-03-02T04:48:03;96400.03;;;-1.15;100.00
498;BME280;39559;48.630;9.162;2024-03-02T04:50:29;96390.59;;;-1.08;100.00
498;BME280;39559;48.630;9.162;2024-03-02T04:52:55;96394.03;;;-1.11;100.00
498;BME280;39559;48.630;9.162;2024-03-02T04:55:20;96397.56;;;-1.20;100.00
498;BME280;39559;48.630;9.162;2024-03-02T04:59:53;96401.72;;;-1.12;100.00
498;BME280;39559;48.630;9.162;2024-03-02T05:02:19;96402.66;;;-1.21;100.00
498;BME280;39559;48.630;9.162;2024-03-02T05:04:44;96400.97;;;-1.21;100.00
498;BME280;39559;48.630;9.162;2024-03-02T05:07:10;96410.41;;;-1.27;100.00
498;BME280;39559;48.630;9.162;2024-03-02T05:09:35;96409.53;;;-1.28;100.00
498;BME280;39559;48.630;9.162;2024-03-02T05:12:01;96415.53;;;-1.30;100.00
498;BME280;39559;48.630;9.162;2024-03-02T05:14:46;96409.88;;;-1.52;100.00
498;BME280;39559;48.630;9.162;2024-03-02T05:17:11;96427.72;;;-1.57;100.00
498;BME280;39559;48.630;9.162;2024-03-02T05:19:37;96428.53;;;-1.53;100.00
498;BME280;39559;48.630;9.162;2024-03-02T05:23:54;96418.25;;;-1.44;100.00
498;BME280;39559;48.630;9.162;2024-03-02T05:26:20;96425.06;;;-1.46;100.00
498;BME280;39559;48.630;9.162;2024-03-02T05:28:46;96416.59;;;-1.47;100.00
498;BME280;39559;48.630;9.162;2024-03-02T05:31:11;96418.19;;;-1.38;100.00
498;BME280;39559;48.630;9.162;2024-03-02T05:33:40;96418.19;;;-1.38;100.00
498;BME280;39559;48.630;9.162;2024-03-02T05:36:06;96416.72;;;-1.58;100.00
498;BME280;39559;48.630;9.162;2024-03-02T05:38:32;96424.28;;;-1.51;100.00
498;BME280;39559;48.630;9.162;2024-03-02T05:40:59;96417.44;;;-1.49;100.00
498;BME280;39559;48.630;9.162;2024-03-02T05:43:25;96421.66;;;-1.45;100.00
498;BME280;39559;48.630;9.162;2024-03-02T05:47:55;96421.72;;;-1.51;100.00
498;BME280;39559;48.630;9.162;2024-03-02T05:50:20;96420.16;;;-1.62;100.00
498;BME280;39559;48.630;9.162;2024-03-02T05:52:46;96425.09;;;-1.49;100.00
498;BME280;39559;48.630;9.162;2024-03-02T05:55:12;96437.00;;;-1.51;100.00
498;BME280;39559;48.630;9.162;2024-03-02T05:57:37;96427.88;;;-1.69;100.00
498;BME280;39559;48.630;9.162;2024-03-02T06:00:06;96434.78;;;-1.82;100.00
498;BME280;39559;48.630;9.162;2024-03-02T06:02:33;96444.91;;;-1.75;100.00
498;BME280;39559;48.630;9.162;2024-03-02T06:05:00;96448.41;;;-1.83;100.00
498;BME280;39559;48.630;9.162;2024-03-02T06:07:26;96456.03;;;-1.82;100.00
498;BME280;39559;48.630;9.162;2024-03-02T06:11:55;96456.63;;;-1.61;100.00
498;BME280;39559;48.630;9.162;2024-03-02T06:14:21;96451.47;;;-1.55;100.00
498;BME280;39559;48.630;9.162;2024-03-02T06:16:46;96453.94;;;-1.47;100.00
498;BME280;39559;48.630;9.162;2024-03-02T06:19:12;96436.03;;;-1.41;100.00
498;BME280;39559;48.630;9.162;2024-03-02T06:21:37;96436.72;;;-1.27;100.00
498;BME280;39559;48.630;9.162;2024-03-02T06:24:03;96431.75;;;-1.39;100.00
498;BME280;39559;48.630;9.162;2024-03-02T06:26:28;96430.91;;;-1.38;100.00
498;BME280;39559;48.630;9.162;2024-03-02T06:28:55;96445.13;;;-1.22;100.00
498;BME280;39559;48.630;9.162;2024-03-02T06:31:20;96447.56;;;-1.14;100.00
498;BME280;39559;48.630;9.162;2024-03-02T06:35:57;96456.09;;;-1.17;100.00
498;BME280;39559;48.630;9.162;2024-03-02T06:38:23;96451.16;;;-1.29;100.00
498;BME280;39559;48.630;9.162;2024-03-02T06:40:48;96457.34;;;-1.48;100.00
498;BME280;39559;48.630;9.162;2024-03-02T06:43:14;96456.66;;;-1.64;100.00
498;BME280;39559;48.630;9.162;2024-03-02T06:45:39;96463.50;;;-1.69;100.00
498;BME280;39559;48.630;9.162;2024-03-02T06:48:05;96481.88;;;-1.43;100.00
498;BME280;39559;48.630;9.162;2024-03-02T06:50:31;96478.13;;;-1.12;100.00
498;BME280;39559;48.630;9.162;2024-03-02T06:52:56;96480.44;;;-0.95;100.00
498;BME280;39559;48.630;9.162;2024-03-02T06:55:22;96468.50;;;-0.92;100.00
498;BME280;39559;48.630;9.162;2024-03-02T06:59:58;96475.91;;;-0.73;100.00
498;BME280;39559;48.630;9.162;2024-03-02T07:02:24;96462.97;;;-0.60;100.00
498;BME280;39559;48.630;9.162;2024-03-02T07:04:55;96467.16;;;-0.57;100.00
498;BME280;39559;48.630;9.162;2024-03-02T07:07:20;96466.16;;;-0.47;100.00
498;BME280;39559;48.630;9.162;2024-03-02T07:09:46;96463.69;;;-0.53;100.00
498;BME280;39559;48.630;9.162;2024-03-02T07:12:13;96465.25;;;-0.44;100.00
498;BME280;39559;48.630;9.162;2024-03-02T07:14:38;96468.84;;;-0.56;100.00
498;BME280;39559;48.630;9.162;2024-03-02T07:17:36;96462.97;;;-0.61;100.00
498;BME280;39559;48.630;9.162;2024-03-02T07:20:02;96477.09;;;-0.40;100.00
498;BME280;39559;48.630;9.162;2024-03-02T07:23:59;96472.25;;;-0.03;100.00
498;BME280;39559;48.630;9.162;2024-03-02T07:26:28;96467.75;;;0.10;100.00
498;BME280;39559;48.630;9.162;2024-03-02T07:28:55;96466.75;;;0.19;100.00
498;BME280;39559;48.630;9.162;2024-03-02T07:31:21;96457.28;;;0.26;100.00
498;BME280;39559;48.630;9.162;2024-03-02T07:33:46;96456.41;;;0.27;100.00
498;BME280;39559;48.630;9.162;2024-03-02T07:36:12;96455.44;;;0.32;100.00
498;BME280;39559;48.630;9.162;2024-03-02T07:38:38;96450.31;;;0.34;100.00
498;BME280;39559;48.630;9.162;2024-03-02T07:41:04;96447.66;;;0.40;100.00
498;BME280;39559;48.630;9.162;2024-03-02T07:43:30;96448.66;;;0.31;100.00
498;BME280;39559;48.630;9.162;2024-03-02T07:48:00;96446.81;;;0.38;100.00
498;BME280;39559;48.630;9.162;2024-03-02T07:50:26;96451.81;;;0.44;100.00
498;BME280;39559;48.630;9.162;2024-03-02T07:52:52;96442.66;;;0.34;100.00
498;BME280;39559;48.630;9.162;2024-03-02T07:55:18;96449.72;;;0.19;100.00
498;BME280;39559;48.630;9.162;2024-03-02T07:57:43;96450.22;;;0.40;100.00
498;BME280;39559;48.630;9.162;2024-03-02T08:00:09;96456.78;;;0.52;100.00
498;BME280;39559;48.630;9.162;2024-03-02T08:02:35;96453.06;;;0.68;100.00
498;BME280;39559;48.630;9.162;2024-03-02T08:05:01;96444.56;;;0.66;100.00
498;BME280;39559;48.630;9.162;2024-03-02T08:07:26;96446.88;;;0.79;100.00
498;BME280;39559;48.630;9.162;2024-03-02T08:11:59;96443.53;;;0.76;100.00
498;BME280;39559;48.630;9.162;2024-03-02T08:14:24;96439.56;;;1.02;100.00
498;BME280;39559;48.630;9.162;2024-03-02T08:16:50;96437.34;;;0.85;100.00
498;BME280;39559;48.630;9.162;2024-03-02T08:19:15;96452.75;;;1.23;100.00
498;BME280;39559;48.630;9.162;2024-03-02T08:21:42;96470.69;;;1.59;100.00
498;BME280;39559;48.630;9.162;2024-03-02T08:24:08;96474.06;;;1.61;100.00
498;BME280;39559;48.630;9.162;2024-03-02T08:26:34;96473.28;;;1.93;100.00
498;BME280;39559;48.630;9.162;2024-03-02T08:29:00;96475.28;;;2.15;100.00
498;BME280;39559;48.630;9.162;2024-03-02T08:31:32;96471.84;;;2.48;100.00
498;BME280;39559;48.630;9.162;2024-03-02T08:36:03;96471.03;;;2.79;100.00
498;BME280;39559;48.630;9.162;2024-03-02T08:38:28;96463.53;;;3.31;100.00
498;BME280;39559;48.630;9.162;2024-03-02T08:40:54;96459.41;;;3.54;100.00
498;BME280;39559;48.630;9.162;2024-03-02T08:43:20;96444.47;;;3.93;100.00
498;BME280;39559;48.630;9.162;2024-03-02T08:45:48;96438.84;;;4.57;100.00
498;BME280;39559;48.630;9.162;2024-03-02T08:48:13;96407.97;;;5.05;100.00
498;BME280;39559;48.630;9.162;2024-03-02T08:50:39;96407.34;;;5.86;100.00
498;BME280;39559;48.630;9.162;2024-03-02T08:53:04;96376.25;;;5.89;100.00
498;BME280;39559;48.630;9.162;2024-03-02T08:55:30;96376.88;;;6.17;100.00
498;BME280;39559;48.630;9.162;2024-03-02T09:00:04;96358.03;;;5.94;100.00
498;BME280;39559;48.630;9.162;2024-03-02T09:02:31;96361.25;;;6.40;100.00
498;BME280;39559;48.630;9.162;2024-03-02T09:04:57;96360.38;;;6.21;100.00
498;BME280;39559;48.630;9.162;2024-03-02T09:07:23;96358.13;;;6.52;100.00
498;BME280;39559;48.630;9.162;2024-03-02T09:09:49;96351.84;;;6.39;100.00
498;BME280;39559;48.630;9.162;2024-03-02T09:12:14;96348.91;;;6.47;100.00
498;BME280;39559;48.630;9.162;2024-03-02T09:14:40;96346.16;;;6.51;100.00
498;BME280;39559;48.630;9.162;2024-03-02T09:17:06;96344.75;;;6.63;100.00
498;BME280;39559;48.630;9.162;2024-03-02T09:19:31;96340.00;;;6.92;100.00
498;BME280;39559;48.630;9.162;2024-03-02T09:24:05;96330.88;;;7.21;100.00
498;BME280;39559;48.630;9.162;2024-03-02T09:26:32;96318.84;;;7.39;100.00
498;BME280;39559;48.630;9.162;2024-03-02T09:28:57;96313.91;;;7.69;100.00
498;BME280;39559;48.630;9.162;2024-03-02T09:31:23;96309.84;;;7.99;100.00
498;BME280;39559;48.630;9.162;2024-03-02T09:33:49;96306.81;;;8.24;100.00
498;BME280;39559;48.630;9.162;2024-03-02T09:36:19;96306.06;;;8.22;100.00
498;BME280;39559;48.630;9.162;2024-03-02T09:38:45;96299.84;;;8.26;100.00
498;BME280;39559;48.630;9.162;2024-03-02T09:41:10;96296.88;;;8.65;100.00
498;BME280;39559;48.630;9.162;2024-03-02T09:43:36;96291.88;;;8.78;100.00
498;BME280;39559;48.630;9.162;2024-03-02T09:48:06;96288.03;;;8.54;100.00
498;BME280;39559;48.630;9.162;2024-03-02T09:50:32;96286.53;;;8.81;100.00
498;BME280;39559;48.630;9.162;2024-03-02T09:52:59;96278.03;;;9.26;100.00
498;BME280;39559;48.630;9.162;2024-03-02T09:55:24;96282.84;;;9.62;100.00
498;BME280;39559;48.630;9.162;2024-03-02T09:57:50;96277.47;;;10.10;100.00
498;BME280;39559;48.630;9.162;2024-03-02T10:00:17;96276.94;;;10.48;100.00
498;BME280;39559;48.630;9.162;2024-03-02T10:02:43;96277.28;;;10.98;100.00
498;BME280;39559;48.630;9.162;2024-03-02T10:05:09;96272.25;;;11.09;100.00
498;BME280;39559;48.630;9.162;2024-03-02T10:07:34;96275.66;;;10.82;100.00
498;BME280;39559;48.630;9.162;2024-03-02T10:12:09;96272.25;;;11.49;100.00
498;BME280;39559;48.630;9.162;2024-03-02T10:14:36;96265.59;;;11.45;100.00
498;BME280;39559;48.630;9.162;2024-03-02T10:17:03;96276.16;;;11.02;100.00
498;BME280;39559;48.630;9.162;2024-03-02T10:19:29;96255.13;;;11.59;100.00
498;BME280;39559;48.630;9.162;2024-03-02T10:22:01;96261.19;;;11.98;100.00
498;BME280;39559;48.630;9.162;2024-03-02T10:24:28;96257.22;;;12.18;100.00
498;BME280;39559;48.630;9.162;2024-03-02T10:26:53;96253.19;;;12.64;100.00
498;BME280;39559;48.630;9.162;2024-03-02T10:29:20;96256.56;;;13.14;100.00
498;BME280;39559;48.630;9.162;2024-03-02T10:31:46;96255.78;;;13.96;100.00
498;BME280;39559;48.630;9.162;2024-03-02T10:36:07;96245.75;;;13.67;97.29
498;BME280;39559;48.630;9.162;2024-03-02T10:38:33;96247.59;;;13.30;100.00
498;BME280;39559;48.630;9.162;2024-03-02T10:40:59;96246.41;;;13.47;93.42
498;BME280;39559;48.630;9.162;2024-03-02T10:43:26;96248.50;;;12.93;100.00
498;BME280;39559;48.630;9.162;2024-03-02T10:45:52;96243.88;;;13.34;100.00
498;BME280;39559;48.630;9.162;2024-03-02T10:48:19;96244.94;;;13.78;93.82
498;BME280;39559;48.630;9.162;2024-03-02T10:50:45;96237.09;;;13.31;84.42
498;BME280;39559;48.630;9.162;2024-03-02T10:53:10;96230.16;;;14.24;96.76
498;BME280;39559;48.630;9.162;2024-03-02T10:55:36;96225.53;;;14.27;84.42
498;BME280;39559;48.630;9.162;2024-03-02T11:00:12;96206.75;;;14.67;78.24
498;BME280;39559;48.630;9.162;2024-03-02T11:02:50;96208.72;;;14.86;78.19
498;BME280;39559;48.630;9.162;2024-03-02T11:05:28;96209.34;;;14.67;80.56
498;BME280;39559;48.630;9.162;2024-03-02T11:08:04;96204.06;;;14.01;87.63
498;BME280;39559;48.630;9.162;2024-03-02T11:10:37;96202.34;;;14.45;85.81
498;BME280;39559;48.630;9.162;2024-03-02T11:13:11;96204.41;;;14.96;96.92
498;BME280;39559;48.630;9.162;2024-03-02T11:16:01;96204.50;;;14.40;77.03
498;BME280;39559;48.630;9.162;2024-03-02T11:18:29;96196.78;;;14.50;77.17
498;BME280;39559;48.630;9.162;2024-03-02T11:20:56;96193.13;;;14.41;78.48
498;BME280;39559;48.630;9.162;2024-03-02T11:26:55;96180.56;;;15.95;70.73
498;BME280;39559;48.630;9.162;2024-03-02T11:32:15;96179.78;;;15.52;66.81
498;BME280;39559;48.630;9.162;2024-03-02T11:34:43;96171.72;;;14.58;81.35
498;BME280;39559;48.630;9.162;2024-03-02T11:37:10;96170.16;;;14.56;72.16
498;BME280;39559;48.630;9.162;2024-03-02T11:39:42;96163.53;;;14.63;74.08
498;BME280;39559;48.630;9.162;2024-03-02T11:42:10;96161.25;;;15.02;71.94
498;BME280;39559;48.630;9.162;2024-03-02T11:44:39;96153.56;;;14.89;73.46
498;BME280;39559;48.630;9.162;2024-03-02T11:48:08;96152.41;;;15.14;71.94
498;BME280;39559;48.630;9.162;2024-03-02T11:50:49;96150.41;;;15.07;73.60
498;BME280;39559;48.630;9.162;2024-03-02T11:53:15;96148.28;;;15.01;73.22
498;BME280;39559;48.630;9.162;2024-03-02T11:55:42;96142.91;;;15.13;77.14
498;BME280;39559;48.630;9.162;2024-03-02T11:58:12;96133.72;;;15.19;73.85
498;BME280;39559;48.630;9.162;2024-03-02T12:00:38;96132.38;;;15.25;72.82
498;BME280;39559;48.630;9.162;2024-03-02T12:03:07;96133.56;;;15.21;78.29
498;BME280;39559;48.630;9.162;2024-03-02T12:05:35;96124.06;;;15.83;81.51
498;BME280;39559;48.630;9.162;2024-03-02T12:08:03;96113.97;;;15.78;72.47
498;BME280;39559;48.630;9.162;2024-03-02T12:12:09;96117.38;;;16.09;72.16
498;BME280;39559;48.630;9.162;2024-03-02T12:14:38;96105.34;;;16.47;70.05
498;BME280;39559;48.630;9.162;2024-03-02T12:17:05;96103.72;;;17.05;72.77
498;BME280;39559;48.630;9.162;2024-03-02T12:19:33;96105.38;;;17.16;64.96
498;BME280;39559;48.630;9.162;2024-03-02T12:22:01;96106.03;;;16.69;64.32
498;BME280;39559;48.630;9.162;2024-03-02T12:24:28;96105.47;;;16.46;64.43
498;BME280;39559;48.630;9.162;2024-03-02T12:26:54;96106.03;;;17.37;69.18
498;BME280;39559;48.630;9.162;2024-03-02T12:29:20;96101.06;;;17.72;63.94
498;BME280;39559;48.630;9.162;2024-03-02T12:31:51;96097.03;;;17.40;57.87
498;BME280;39559;48.630;9.162;2024-03-02T12:36:10;96089.84;;;17.42;58.86
498;BME280;39559;48.630;9.162;2024-03-02T12:38:37;96085.72;;;17.39;60.61
498;BME280;39559;48.630;9.162;2024-03-02T12:41:16;96088.75;;;16.18;59.42
498;BME280;39559;48.630;9.162;2024-03-02T12:43:55;96078.19;;;15.88;58.80
498;BME280;39559;48.630;9.162;2024-03-02T12:46:22;96086.31;;;16.45;60.78
498;BME280;39559;48.630;9.162;2024-03-02T12:48:48;96081.56;;;17.46;58.90
498;BME280;39559;48.630;9.162;2024-03-02T12:51:14;96076.81;;;17.60;54.55
498;BME280;39559;48.630;9.162;2024-03-02T12:53:39;96070.81;;;17.40;53.80
498;BME280;39559;48.630;9.162;2024-03-02T12:56:05;96071.69;;;16.43;55.37
498;BME280;39559;48.630;9.162;2024-03-02T13:00:07;96063.38;;;16.08;55.68
498;BME280;39559;48.630;9.162;2024-03-02T13:02:53;96071.91;;;15.70;56.78
498;BME280;39559;48.630;9.162;2024-03-02T13:05:21;96069.97;;;16.03;58.03
498;BME280;39559;48.630;9.162;2024-03-02T13:07:48;96066.09;;;16.07;56.56
498;BME280;39559;48.630;9.162;2024-03-02T13:10:15;96059.13;;;16.56;55.83
498;BME280;39559;48.630;9.162;2024-03-02T13:12:43;96065.34;;;16.36;56.19
498;BME280;39559;48.630;9.162;2024-03-02T13:15:10;96052.78;;;16.59;55.54
498;BME280;39559;48.630;9.162;2024-03-02T13:17:37;96058.63;;;17.39;54.31
498;BME280;39559;48.630;9.162;2024-03-02T13:20:05;96052.25;;;16.84;59.22
498;BME280;39559;48.630;9.162;2024-03-02T13:24:05;96050.63;;;15.53;57.90
498;BME280;39559;48.630;9.162;2024-03-02T13:26:31;96048.63;;;15.46;56.73
498;BME280;39559;48.630;9.162;2024-03-02T13:28:57;96047.91;;;15.34;56.34
498;BME280;39559;48.630;9.162;2024-03-02T13:31:22;96049.28;;;16.00;57.30
498;BME280;39559;48.630;9.162;2024-03-02T13:33:48;96053.69;;;17.36;54.74
498;BME280;39559;48.630;9.162;2024-03-02T13:36:13;96045.88;;;16.67;53.27
498;BME280;39559;48.630;9.162;2024-03-02T13:38:39;96045.75;;;16.30;55.15
498;BME280;39559;48.630;9.162;2024-03-02T13:41:05;96049.75;;;15.74;59.87
498;BME280;39559;48.630;9.162;2024-03-02T13:43:30;96055.28;;;15.81;56.35
498;BME280;39559;48.630;9.162;2024-03-02T13:48:00;96042.41;;;17.06;54.42
498;BME280;39559;48.630;9.162;2024-03-02T13:50:29;96035.00;;;17.39;54.18
498;BME280;39559;48.630;9.162;2024-03-02T13:52:55;96033.88;;;17.04;54.15
498;BME280;39559;48.630;9.162;2024-03-02T13:55:21;96031.97;;;16.38;53.07
498;BME280;39559;48.630;9.162;2024-03-02T13:57:48;96037.06;;;16.20;57.14
498;BME280;39559;48.630;9.162;2024-03-02T14:00:16;96035.38;;;16.09;55.36
498;BME280;39559;48.630;9.162;2024-03-02T14:02:45;96031.78;;;15.08;55.81
498;BME280;39559;48.630;9.162;2024-03-02T14:05:11;96031.59;;;15.21;55.15
498;BME280;39559;48.630;9.162;2024-03-02T14:07:38;96032.19;;;14.82;56.65
498;BME280;39559;48.630;9.162;2024-03-02T14:12:01;96020.66;;;14.85;56.09
498;BME280;39559;48.630;9.162;2024-03-02T14:14:28;96013.56;;;14.96;55.04
498;BME280;39559;48.630;9.162;2024-03-02T14:16:54;96008.56;;;15.14;55.44
498;BME280;39559;48.630;9.162;2024-03-02T14:19:21;96011.81;;;15.28;59.33
498;BME280;39559;48.630;9.162;2024-03-02T14:21:47;96003.31;;;14.84;58.60
498;BME280;39559;48.630;9.162;2024-03-02T14:24:13;96006.91;;;15.44;59.45
498;BME280;39559;48.630;9.162;2024-03-02T14:26:40;96001.28;;;15.49;59.53
498;BME280;39559;48.630;9.162;2024-03-02T14:29:07;96003.69;;;15.31;58.76
498;BME280;39559;48.630;9.162;2024-03-02T14:31:33;96001.50;;;15.26;57.65